createdAt,value
2017-04-06T00:00:45.424Z,58.80
2017-04-06T00:01:44.542Z,59.10
2017-04-06T00:02:44.365Z,58.60
2017-04-06T00:03:43.368Z,58.60
2017-04-06T00:04:42.472Z,58.80
2017-04-06T00:05:41.587Z,58.70
2017-04-06T00:06:41.431Z,58.80
2017-04-06T00:07:40.507Z,58.50
2017-04-06T00:08:39.695Z,58.40
2017-04-06T00:09:38.828Z,58.80
2017-04-06T00:10:38.732Z,58.30
2017-04-06T00:11:37.864Z,58.40
2017-04-06T00:12:36.955Z,58.40
2017-04-06T00:13:36.131Z,58.30
2017-04-06T00:14:35.199Z,58.10
2017-04-06T00:15:34.249Z,58.00
2017-04-06T00:16:33.375Z,57.90
2017-04-06T00:17:32.559Z,58.10
2017-04-06T00:18:32.503Z,58.30
2017-04-06T00:19:31.613Z,58.50
2017-04-06T00:20:30.798Z,58.60
2017-04-06T00:21:30.031Z,58.30
2017-04-06T00:22:29.216Z,58.70
2017-04-06T00:23:28.484Z,58.50
2017-04-06T00:24:28.405Z,58.70
2017-04-06T00:25:27.520Z,58.60
2017-04-06T00:26:26.656Z,58.10
2017-04-06T00:27:25.799Z,58.30
2017-04-06T00:28:24.903Z,58.10
2017-04-06T00:29:24.124Z,57.60
2017-04-06T00:30:23.311Z,57.70
2017-04-06T00:31:22.461Z,58.40
2017-04-06T00:32:21.636Z,58.10
2017-04-06T00:33:20.791Z,57.80
2017-04-06T00:34:20.741Z,57.50
2017-04-06T00:35:19.924Z,57.20
2017-04-06T00:36:19.075Z,57.40
2017-04-06T00:37:18.093Z,58.10
2017-04-06T00:38:17.351Z,57.70
2017-04-06T00:39:16.555Z,58.30
2017-04-06T00:40:15.780Z,57.90
2017-04-06T00:42:14.495Z,57.50
2017-04-06T00:43:13.620Z,57.30
2017-04-06T00:44:13.581Z,57.60
2017-04-06T00:45:12.812Z,57.40
2017-04-06T00:46:12.640Z,56.80
2017-04-06T00:47:11.880Z,56.80
2017-04-06T00:48:11.055Z,56.60
2017-04-06T00:49:10.647Z,56.60
2017-04-06T00:50:09.860Z,56.20
2017-04-06T00:51:09.094Z,56.10
2017-04-06T00:52:12.679Z,56.30
2017-04-06T00:53:11.760Z,56.60
2017-04-06T00:54:11.320Z,56.30
2017-04-06T00:55:10.614Z,56.40
2017-04-06T00:56:09.736Z,56.40
2017-04-06T00:57:09.581Z,57.00
2017-04-06T00:58:08.732Z,56.40
2017-04-06T00:59:07.851Z,57.10
2017-04-06T01:00:07.049Z,56.70
2017-04-06T01:01:06.297Z,56.70
2017-04-06T01:02:05.459Z,56.70
2017-04-06T01:03:04.635Z,57.30
2017-04-06T01:04:03.784Z,56.40
2017-04-06T01:05:02.940Z,56.70
2017-04-06T01:06:02.068Z,56.40
2017-04-06T01:07:01.188Z,56.40
2017-04-06T01:08:00.341Z,55.60
2017-04-06T01:08:59.463Z,55.70
2017-04-06T01:09:58.643Z,55.60
2017-04-06T01:10:57.811Z,55.60
2017-04-06T01:11:56.992Z,55.70
2017-04-06T01:12:56.083Z,55.90
2017-04-06T01:13:55.943Z,55.80
2017-04-06T01:14:55.082Z,55.80
2017-04-06T01:15:54.231Z,55.60
2017-04-06T01:16:53.236Z,55.90
2017-04-06T01:17:52.467Z,55.80
2017-04-06T01:18:51.572Z,56.00
2017-04-06T01:19:50.722Z,55.90
2017-04-06T01:20:49.832Z,56.10
2017-04-06T01:21:48.968Z,56.20
2017-04-06T01:22:48.896Z,56.40
2017-04-06T01:23:48.015Z,56.40
2017-04-06T01:24:47.203Z,56.20
2017-04-06T01:25:46.375Z,56.60
2017-04-06T01:26:45.508Z,56.70
2017-04-06T01:27:44.631Z,56.80
2017-04-06T01:28:43.746Z,56.80
2017-04-06T01:29:42.943Z,56.80
2017-04-06T01:30:42.061Z,56.90
2017-04-06T01:31:41.186Z,57.00
2017-04-06T01:32:41.148Z,57.30
2017-04-06T01:33:40.260Z,57.50
2017-04-06T01:34:39.437Z,57.60
2017-04-06T01:35:39.339Z,58.40
2017-04-06T01:36:39.256Z,58.00
2017-04-06T01:37:39.124Z,58.00
2017-04-06T01:38:38.320Z,58.00
2017-04-06T01:39:38.259Z,58.60
2017-04-06T01:40:37.330Z,58.30
2017-04-06T01:41:36.520Z,58.60
2017-04-06T01:42:35.683Z,58.30
2017-04-06T01:43:34.809Z,58.60
2017-04-06T01:44:33.956Z,58.60
2017-04-06T01:45:33.031Z,58.40
2017-04-06T01:46:32.164Z,58.40
2017-04-06T01:47:32.144Z,58.30
2017-04-06T01:48:31.379Z,58.60
2017-04-06T01:49:30.543Z,58.70
2017-04-06T01:50:30.443Z,58.90
2017-04-06T01:51:30.232Z,58.70
2017-04-06T01:52:30.105Z,58.90
2017-04-06T01:53:29.281Z,58.80
2017-04-06T01:54:28.418Z,59.00
2017-04-06T01:55:27.504Z,59.20
2017-04-06T01:56:26.667Z,59.10
2017-04-06T01:57:26.612Z,59.30
2017-04-06T01:58:26.064Z,59.20
2017-04-06T01:59:25.139Z,59.60
2017-04-06T02:00:24.856Z,59.80
2017-04-06T02:01:24.075Z,59.30
2017-04-06T02:02:23.232Z,59.40
2017-04-06T02:03:22.296Z,59.80
2017-04-06T02:04:21.428Z,59.90
2017-04-06T02:05:20.561Z,59.50
2017-04-06T02:06:19.693Z,59.70
2017-04-06T02:07:19.564Z,59.90
2017-04-06T02:08:18.784Z,60.40
2017-04-06T02:09:17.891Z,59.80
2017-04-06T02:10:17.048Z,59.80
2017-04-06T02:11:16.171Z,60.00
2017-04-06T02:12:15.404Z,60.40
2017-04-06T02:13:15.268Z,60.00
2017-04-06T02:14:14.375Z,59.80
2017-04-06T02:15:14.296Z,59.90
2017-04-06T02:16:13.467Z,59.60
2017-04-06T02:17:12.742Z,60.00
2017-04-06T02:18:11.847Z,60.10
2017-04-06T02:19:11.896Z,60.00
2017-04-06T02:20:11.057Z,60.70
2017-04-06T02:21:10.239Z,60.70
2017-04-06T02:22:09.348Z,60.30
2017-04-06T02:23:09.460Z,61.00
2017-04-06T02:24:09.360Z,60.60
2017-04-06T02:25:09.227Z,60.70
2017-04-06T02:26:09.171Z,60.80
2017-04-06T02:27:08.230Z,61.00
2017-04-06T02:28:07.324Z,60.70
2017-04-06T02:29:07.151Z,61.50
2017-04-06T02:30:06.329Z,61.20
2017-04-06T02:31:05.448Z,61.70
2017-04-06T02:32:04.614Z,61.80
2017-04-06T02:33:03.764Z,60.70
2017-04-06T02:34:02.904Z,60.90
2017-04-06T02:35:02.800Z,61.60
2017-04-06T02:36:02.720Z,61.20
2017-04-06T02:37:01.832Z,61.00
2017-04-06T02:38:01.732Z,61.90
2017-04-06T02:39:00.859Z,61.30
2017-04-06T02:40:00.754Z,60.90
2017-04-06T02:41:00.608Z,61.10
2017-04-06T02:42:00.495Z,61.50
2017-04-06T02:42:59.643Z,61.50
2017-04-06T02:43:58.769Z,61.40
2017-04-06T02:44:57.903Z,61.30
2017-04-06T02:45:56.923Z,61.90
2017-04-06T02:46:55.980Z,62.70
2017-04-06T02:47:55.079Z,61.50
2017-04-06T02:48:54.264Z,61.50
2017-04-06T02:49:53.368Z,61.40
2017-04-06T02:50:52.471Z,60.90
2017-04-06T02:51:52.403Z,61.20
2017-04-06T02:52:51.495Z,61.90
2017-04-06T02:53:50.631Z,61.70
2017-04-06T02:54:49.752Z,61.70
2017-04-06T02:55:48.948Z,62.10
2017-04-06T02:56:48.075Z,62.10
2017-04-06T02:57:47.883Z,62.70
2017-04-06T02:58:47.040Z,61.70
2017-04-06T02:59:46.908Z,62.00
2017-04-06T03:00:45.951Z,61.60
2017-04-06T03:01:45.058Z,61.80
2017-04-06T03:02:44.156Z,61.70
2017-04-06T03:03:43.181Z,61.90
2017-04-06T03:04:42.294Z,61.90
2017-04-06T03:06:40.964Z,62.30
2017-04-06T03:07:40.155Z,61.40
2017-04-06T03:08:39.280Z,61.80
2017-04-06T03:09:38.328Z,62.10
2017-04-06T03:10:37.364Z,62.60
2017-04-06T03:11:36.399Z,62.70
2017-04-06T03:12:36.228Z,61.70
2017-04-06T03:13:35.372Z,61.90
2017-04-06T03:14:35.136Z,62.10
2017-04-06T03:15:34.284Z,62.20
2017-04-06T03:16:33.395Z,62.20
2017-04-06T03:17:32.428Z,62.60
2017-04-06T03:18:31.582Z,63.60
2017-04-06T03:19:31.463Z,62.50
2017-04-06T03:20:30.631Z,62.90
2017-04-06T03:21:29.787Z,63.50
2017-04-06T03:22:28.844Z,63.20
2017-04-06T03:23:27.983Z,63.70
2017-04-06T03:24:27.108Z,63.80
2017-04-06T03:25:26.195Z,63.50
2017-04-06T03:26:25.264Z,62.70
2017-04-06T03:27:24.387Z,63.00
2017-04-06T03:28:23.583Z,62.70
2017-04-06T03:29:22.668Z,63.10
2017-04-06T03:30:22.591Z,62.90
2017-04-06T03:31:21.680Z,63.70
2017-04-06T03:32:20.801Z,63.20
2017-04-06T03:33:19.979Z,63.20
2017-04-06T03:34:19.107Z,62.90
2017-04-06T03:35:18.265Z,62.40
2017-04-06T03:36:17.419Z,62.50
2017-04-06T03:37:16.501Z,63.70
2017-04-06T03:38:15.553Z,63.00
2017-04-06T03:39:14.682Z,62.30
2017-04-06T03:40:14.508Z,63.50
2017-04-06T03:41:13.703Z,62.40
2017-04-06T03:42:12.930Z,62.40
2017-04-06T03:43:12.026Z,62.20
2017-04-06T03:44:11.951Z,62.30
2017-04-06T03:45:11.105Z,62.00
2017-04-06T03:46:10.703Z,62.00
2017-04-06T03:47:10.562Z,62.00
2017-04-06T03:48:09.607Z,62.00
2017-04-06T03:49:08.784Z,62.20
2017-04-06T03:50:07.887Z,62.20
2017-04-06T03:51:07.023Z,61.80
2017-04-06T03:52:06.888Z,61.80
2017-04-06T03:53:05.984Z,62.60
2017-04-06T03:54:05.849Z,61.90
2017-04-06T03:55:04.952Z,62.10
2017-04-06T03:56:04.039Z,62.10
2017-04-06T03:57:03.858Z,63.10
2017-04-06T03:58:03.080Z,62.10
2017-04-06T03:59:02.204Z,62.60
2017-04-06T04:00:02.060Z,62.30
2017-04-06T04:01:01.156Z,61.10
2017-04-06T04:02:00.288Z,61.40
2017-04-06T04:02:59.207Z,61.50
2017-04-06T04:03:58.267Z,61.50
2017-04-06T04:04:57.291Z,61.30
2017-04-06T04:05:57.122Z,61.20
2017-04-06T04:06:56.235Z,61.50
2017-04-06T04:07:55.303Z,61.50
2017-04-06T04:08:54.480Z,61.50
2017-04-06T04:09:53.587Z,61.50
2017-04-06T04:10:52.643Z,61.80
2017-04-06T04:11:51.772Z,61.80
2017-04-06T04:12:51.623Z,61.50
2017-04-06T04:13:50.755Z,61.80
2017-04-06T04:14:49.843Z,61.90
2017-04-06T04:15:48.951Z,62.70
2017-04-06T04:16:49.759Z,61.50
2017-04-06T04:17:48.920Z,61.60
2017-04-06T04:18:48.219Z,61.80
2017-04-06T04:19:47.384Z,61.80
2017-04-06T04:20:46.460Z,61.80
2017-04-06T04:21:45.517Z,61.60
2017-04-06T04:22:45.355Z,62.40
2017-04-06T04:23:44.448Z,61.90
2017-04-06T04:24:43.586Z,61.90
2017-04-06T04:25:43.546Z,62.60
2017-04-06T04:26:42.680Z,62.30
2017-04-06T04:27:41.782Z,62.10
2017-04-06T04:28:41.248Z,62.70
2017-04-06T04:29:40.323Z,62.00
2017-04-06T04:30:39.424Z,62.60
2017-04-06T04:31:38.571Z,62.10
2017-04-06T04:32:38.468Z,61.60
2017-04-06T04:33:37.637Z,62.10
2017-04-06T04:34:37.528Z,62.20
2017-04-06T04:35:36.635Z,62.20
2017-04-06T04:36:35.716Z,62.70
2017-04-06T04:37:34.871Z,62.20
2017-04-06T04:38:34.756Z,62.50
2017-04-06T04:39:33.859Z,62.20
2017-04-06T04:40:33.728Z,62.30
2017-04-06T04:41:32.867Z,62.40
2017-04-06T04:42:31.971Z,62.80
2017-04-06T04:43:31.031Z,63.20
2017-04-06T04:44:30.205Z,62.50
2017-04-06T04:45:29.379Z,62.70
2017-04-06T04:46:28.600Z,62.60
2017-04-06T04:47:27.671Z,62.80
2017-04-06T04:48:26.815Z,62.40
2017-04-06T04:49:26.170Z,62.50
2017-04-06T04:50:26.091Z,62.70
2017-04-06T04:51:25.920Z,63.20
2017-04-06T04:52:25.047Z,63.60
2017-04-06T04:53:24.888Z,63.60
2017-04-06T04:54:24.043Z,63.70
2017-04-06T04:55:23.163Z,63.10
2017-04-06T04:56:22.357Z,62.80
2017-04-06T04:57:21.500Z,63.00
2017-04-06T04:58:20.679Z,62.90
2017-04-06T04:59:19.744Z,63.30
2017-04-06T05:00:18.876Z,63.20
2017-04-06T05:01:17.990Z,63.00
2017-04-06T05:02:17.069Z,63.40
2017-04-06T05:03:16.265Z,64.50
2017-04-06T05:04:15.423Z,63.90
2017-04-06T05:05:15.351Z,63.80
2017-04-06T05:06:14.466Z,63.50
2017-04-06T05:07:13.704Z,63.50
2017-04-06T05:08:12.808Z,63.70
2017-04-06T05:09:12.004Z,63.80
2017-04-06T05:10:11.191Z,63.80
2017-04-06T05:11:10.332Z,63.70
2017-04-06T05:12:09.400Z,64.50
2017-04-06T05:13:09.365Z,64.00
2017-04-06T05:14:08.625Z,64.20
2017-04-06T05:15:08.466Z,64.00
2017-04-06T05:16:07.604Z,64.30
2017-04-06T05:17:06.768Z,64.40
2017-04-06T05:18:05.907Z,64.20
2017-04-06T05:19:04.988Z,64.60
2017-04-06T05:20:04.885Z,64.30
2017-04-06T05:21:04.735Z,64.30
2017-04-06T05:22:03.827Z,63.80
2017-04-06T05:23:02.972Z,64.00
2017-04-06T05:24:02.079Z,64.50
2017-04-06T05:25:01.191Z,64.20
2017-04-06T05:26:01.047Z,64.80
2017-04-06T05:27:00.400Z,64.60
2017-04-06T05:27:59.385Z,65.10
2017-04-06T05:28:58.505Z,65.00
2017-04-06T05:29:57.532Z,64.90
2017-04-06T05:30:56.640Z,65.30
2017-04-06T05:31:55.768Z,65.20
2017-04-06T05:32:55.552Z,65.00
2017-04-06T05:33:54.690Z,65.00
2017-04-06T05:34:53.767Z,65.00
2017-04-06T05:35:52.919Z,65.60
2017-04-06T05:36:52.716Z,65.70
2017-04-06T05:37:51.878Z,65.70
2017-04-06T05:38:51.719Z,65.50
2017-04-06T05:39:50.876Z,65.60
2017-04-06T05:40:50.777Z,65.70
2017-04-06T05:41:49.928Z,65.40
2017-04-06T05:42:49.045Z,65.20
2017-04-06T05:43:48.436Z,65.30
2017-04-06T05:44:47.563Z,65.40
2017-04-06T05:45:46.593Z,65.30
2017-04-06T05:46:45.747Z,66.20
2017-04-06T05:47:44.789Z,66.70
2017-04-06T05:48:43.831Z,66.10
2017-04-06T05:49:42.929Z,66.60
2017-04-06T05:50:42.082Z,66.80
2017-04-06T05:51:41.133Z,66.60
2017-04-06T05:52:41.098Z,66.60
2017-04-06T05:53:40.179Z,66.10
2017-04-06T05:54:39.357Z,66.00
2017-04-06T05:56:38.831Z,66.30
2017-04-06T05:57:37.903Z,65.80
2017-04-06T05:58:36.945Z,66.30
2017-04-06T05:59:36.764Z,66.30
2017-04-06T06:00:36.101Z,66.30
2017-04-06T06:01:35.172Z,66.50
2017-04-06T06:02:34.241Z,66.70
2017-04-06T06:03:33.373Z,67.10
2017-04-06T06:04:33.200Z,67.20
2017-04-06T06:05:33.114Z,67.20
2017-04-06T06:06:32.292Z,67.40
2017-04-06T06:07:31.371Z,67.30
2017-04-06T06:08:30.489Z,67.30
2017-04-06T06:09:29.588Z,66.90
2017-04-06T06:10:28.615Z,66.90
2017-04-06T06:11:27.824Z,66.60
2017-04-06T06:12:27.078Z,66.80
2017-04-06T06:14:25.948Z,67.70
2017-04-06T06:15:25.100Z,67.30
2017-04-06T06:16:24.221Z,67.10
2017-04-06T06:17:23.442Z,66.80
2017-04-06T06:18:22.623Z,67.50
2017-04-06T06:19:21.759Z,67.50
2017-04-06T06:20:20.852Z,67.50
2017-04-06T06:21:20.015Z,66.70
2017-04-06T06:22:19.210Z,66.90
2017-04-06T06:23:18.303Z,66.60
2017-04-06T06:24:18.132Z,66.90
2017-04-06T06:25:17.320Z,67.10
2017-04-06T06:26:16.460Z,66.80
2017-04-06T06:27:16.293Z,67.60
2017-04-06T06:28:15.492Z,67.00
2017-04-06T06:29:14.604Z,65.80
2017-04-06T06:30:13.788Z,66.00
2017-04-06T06:31:14.348Z,66.40
2017-04-06T06:32:13.568Z,65.80
2017-04-06T06:33:12.740Z,65.60
2017-04-06T06:34:11.861Z,65.50
2017-04-06T06:35:11.052Z,65.10
2017-04-06T06:36:10.940Z,65.70
2017-04-06T06:37:10.057Z,64.50
2017-04-06T06:38:09.177Z,63.80
2017-04-06T06:39:08.271Z,63.90
2017-04-06T06:40:07.449Z,63.90
2017-04-06T06:41:06.536Z,64.20
2017-04-06T06:42:06.433Z,63.90
2017-04-06T06:43:06.203Z,63.70
2017-04-06T06:44:05.340Z,63.80
2017-04-06T06:45:04.520Z,63.70
2017-04-06T06:46:03.667Z,64.20
2017-04-06T06:48:03.229Z,64.20
2017-04-06T06:49:02.380Z,64.70
2017-04-06T06:50:05.145Z,65.00
2017-04-06T06:51:04.286Z,64.50
2017-04-06T06:52:04.213Z,65.30
2017-04-06T06:53:03.356Z,65.50
2017-04-06T06:54:03.276Z,64.70
2017-04-06T06:55:02.408Z,64.50
2017-04-06T06:56:01.596Z,64.30
2017-04-06T06:58:00.909Z,63.20
2017-04-06T06:59:00.728Z,62.80
2017-04-06T06:59:59.880Z,62.80
2017-04-06T07:00:58.924Z,62.70
2017-04-06T07:01:58.059Z,63.00
2017-04-06T07:02:57.094Z,62.20
2017-04-06T07:03:56.240Z,62.30
2017-04-06T07:05:02.074Z,62.20
2017-04-06T07:06:01.252Z,62.10
2017-04-06T07:07:00.394Z,62.30
2017-04-06T07:08:00.340Z,62.10
2017-04-06T07:08:59.608Z,62.30
2017-04-06T07:09:58.723Z,62.00
2017-04-06T07:10:57.882Z,61.40
2017-04-06T07:11:57.056Z,61.40
2017-04-06T07:12:56.131Z,61.20
2017-04-06T07:13:55.323Z,61.20
2017-04-06T07:14:54.658Z,60.70
2017-04-06T07:15:54.564Z,60.40
2017-04-06T07:16:54.512Z,60.00
2017-04-06T07:17:53.661Z,60.00
2017-04-06T07:18:52.892Z,60.40
2017-04-06T07:19:52.003Z,59.30
2017-04-06T07:20:51.895Z,59.50
2017-04-06T07:21:51.759Z,59.90
2017-04-06T07:22:50.828Z,59.70
2017-04-06T07:23:50.007Z,59.90
2017-04-06T07:24:49.168Z,59.90
2017-04-06T07:25:48.372Z,59.30
2017-04-06T07:26:47.453Z,59.10
2017-04-06T07:27:46.531Z,59.50
2017-04-06T07:28:45.607Z,59.60
2017-04-06T07:29:44.807Z,59.90
2017-04-06T07:30:44.009Z,59.60
2017-04-06T07:31:43.184Z,59.90
2017-04-06T07:32:42.311Z,59.70
2017-04-06T07:33:41.390Z,59.30
2017-04-06T07:34:40.475Z,59.40
2017-04-06T07:35:39.544Z,59.70
2017-04-06T07:36:38.625Z,60.00
2017-04-06T07:37:37.746Z,60.30
2017-04-06T07:38:36.920Z,60.00
2017-04-06T07:39:36.088Z,60.00
2017-04-06T07:40:35.217Z,59.60
2017-04-06T07:41:35.133Z,59.90
2017-04-06T07:42:34.259Z,60.10
2017-04-06T07:43:33.407Z,60.00
2017-04-06T07:44:32.523Z,60.20
2017-04-06T07:45:31.661Z,59.70
2017-04-06T07:46:30.795Z,59.30
2017-04-06T07:47:29.922Z,59.30
2017-04-06T07:48:29.071Z,59.10
2017-04-06T07:49:29.007Z,58.90
2017-04-06T07:50:28.167Z,59.20
2017-04-06T07:51:28.102Z,59.40
2017-04-06T07:52:27.237Z,59.30
2017-04-06T07:53:26.319Z,59.90
2017-04-06T07:54:26.228Z,59.00
2017-04-06T07:55:25.413Z,59.20
2017-04-06T07:56:24.459Z,58.80
2017-04-06T07:57:24.195Z,58.50
2017-04-06T07:58:23.589Z,59.00
2017-04-06T07:59:22.697Z,58.80
2017-04-06T08:00:21.905Z,59.30
2017-04-06T08:01:21.812Z,59.10
2017-04-06T08:02:21.620Z,59.30
2017-04-06T08:03:20.760Z,59.20
2017-04-06T08:04:19.908Z,58.60
2017-04-06T08:05:19.080Z,58.60
2017-04-06T08:06:18.163Z,58.50
2017-04-06T08:07:17.249Z,57.80
2017-04-06T08:08:16.350Z,58.40
2017-04-06T08:09:15.767Z,58.10
2017-04-06T08:10:15.620Z,58.80
2017-04-06T08:11:14.792Z,58.30
2017-04-06T08:12:13.992Z,58.40
2017-04-06T08:13:13.103Z,58.10
2017-04-06T08:14:12.988Z,57.90
2017-04-06T08:15:12.163Z,57.80
2017-04-06T08:16:11.356Z,57.80
2017-04-06T08:17:10.688Z,57.90
2017-04-06T08:18:09.943Z,57.30
2017-04-06T08:19:09.237Z,56.80
2017-04-06T08:20:08.791Z,57.00
2017-04-06T08:21:07.931Z,57.60
2017-04-06T08:22:07.072Z,57.30
2017-04-06T08:23:06.258Z,57.80
2017-04-06T08:24:06.107Z,58.00
2017-04-06T08:25:05.293Z,58.30
2017-04-06T08:26:04.444Z,58.00
2017-04-06T08:27:03.603Z,57.90
2017-04-06T08:28:02.711Z,58.00
2017-04-06T08:29:01.850Z,57.70
2017-04-06T08:30:01.803Z,58.30
2017-04-06T08:31:00.881Z,57.90
2017-04-06T08:32:00.051Z,59.00
2017-04-06T08:32:59.239Z,57.80
2017-04-06T08:33:58.392Z,57.50
2017-04-06T08:34:57.459Z,55.60
2017-04-06T08:35:57.232Z,54.70
2017-04-06T08:36:56.396Z,55.10
2017-04-06T08:37:55.632Z,55.10
2017-04-06T08:38:54.781Z,54.80
2017-04-06T08:39:54.598Z,54.20
2017-04-06T08:40:53.657Z,54.30
2017-04-06T08:41:53.515Z,54.60
2017-04-06T08:42:52.579Z,54.50
2017-04-06T08:43:51.784Z,53.90
2017-04-06T08:44:50.892Z,53.80
2017-04-06T08:45:50.049Z,53.90
2017-04-06T08:46:49.176Z,53.90
2017-04-06T08:47:48.356Z,53.80
2017-04-06T08:48:47.591Z,52.80
2017-04-06T08:49:46.773Z,52.10
2017-04-06T08:50:45.861Z,53.10
2017-04-06T08:51:45.013Z,52.50
2017-04-06T08:52:44.066Z,52.10
2017-04-06T08:53:43.245Z,53.10
2017-04-06T08:54:42.412Z,53.70
2017-04-06T08:55:41.547Z,53.90
2017-04-06T08:57:40.539Z,54.70
2017-04-06T08:58:40.144Z,54.80
2017-04-06T08:59:39.968Z,55.40
2017-04-06T09:00:39.168Z,56.00
2017-04-06T09:01:38.242Z,55.80
2017-04-06T09:02:37.439Z,55.70
2017-04-06T09:03:36.596Z,54.70
2017-04-06T09:04:35.694Z,55.70
2017-04-06T09:05:34.757Z,55.90
2017-04-06T09:06:33.855Z,56.20
2017-04-06T09:07:32.996Z,56.00
2017-04-06T09:08:32.091Z,55.80
2017-04-06T09:09:31.213Z,56.30
2017-04-06T09:10:30.443Z,54.90
2017-04-06T09:11:30.029Z,54.90
2017-04-06T09:12:29.116Z,55.00
2017-04-06T09:13:28.339Z,55.80
2017-04-06T09:14:27.522Z,55.60
2017-04-06T09:15:26.753Z,54.80
2017-04-06T09:16:26.015Z,54.10
2017-04-06T09:17:25.996Z,55.30
2017-04-06T09:18:25.146Z,54.70
2017-04-06T09:19:24.331Z,54.60
2017-04-06T09:20:23.457Z,53.80
2017-04-06T09:21:23.312Z,54.10
2017-04-06T09:22:22.483Z,54.30
2017-04-06T09:23:21.592Z,54.70
2017-04-06T09:25:20.387Z,53.10
2017-04-06T09:26:20.324Z,53.20
2017-04-06T09:27:19.439Z,51.60
2017-04-06T09:28:18.580Z,50.90
2017-04-06T09:29:17.747Z,51.30
2017-04-06T09:30:16.967Z,51.00
2017-04-06T09:31:16.059Z,50.70
2017-04-06T09:32:15.265Z,50.30
2017-04-06T09:33:14.483Z,49.90
2017-04-06T09:34:13.583Z,51.50
2017-04-06T09:35:12.649Z,51.30
2017-04-06T09:36:11.803Z,50.50
2017-04-06T09:37:10.945Z,50.90
2017-04-06T09:38:10.684Z,51.10
2017-04-06T09:39:09.944Z,52.20
2017-04-06T09:40:09.842Z,52.00
2017-04-06T09:41:09.760Z,50.50
2017-04-06T09:42:08.948Z,50.20
2017-04-06T09:43:08.027Z,50.50
2017-04-06T09:44:07.120Z,51.60
2017-04-06T09:45:06.277Z,51.20
2017-04-06T09:46:06.435Z,51.50
2017-04-06T09:47:05.756Z,51.60
2017-04-06T09:48:05.725Z,51.40
2017-04-06T09:49:05.688Z,52.00
2017-04-06T09:50:04.844Z,52.60
2017-04-06T09:51:04.000Z,52.50
2017-04-06T09:52:03.924Z,53.70
2017-04-06T09:53:03.117Z,53.40
2017-04-06T09:54:02.253Z,53.00
2017-04-06T09:55:01.415Z,53.40
2017-04-06T09:56:01.260Z,53.30
2017-04-06T09:57:00.397Z,53.50
2017-04-06T09:57:59.460Z,53.40
2017-04-06T09:58:58.638Z,53.40
2017-04-06T09:59:57.764Z,52.60
2017-04-06T10:00:57.800Z,52.40
2017-04-06T10:01:56.977Z,52.30
2017-04-06T10:02:56.165Z,52.30
2017-04-06T10:03:55.259Z,52.70
2017-04-06T10:04:54.508Z,52.70
2017-04-06T10:05:53.658Z,53.30
2017-04-06T10:06:52.772Z,52.40
2017-04-06T10:07:51.999Z,52.50
2017-04-06T10:08:51.091Z,51.60
2017-04-06T10:09:50.220Z,51.70
2017-04-06T10:10:49.487Z,51.70
2017-04-06T10:11:48.905Z,51.40
2017-04-06T10:12:48.048Z,50.60
2017-04-06T10:13:47.187Z,51.00
2017-04-06T10:14:46.340Z,50.90
2017-04-06T10:15:45.548Z,51.60
2017-04-06T10:16:44.744Z,50.40
2017-04-06T10:17:43.849Z,51.00
2017-04-06T10:18:42.998Z,51.00
2017-04-06T10:19:42.181Z,51.00
2017-04-06T10:20:41.323Z,51.30
2017-04-06T10:21:40.515Z,51.10
2017-04-06T10:22:39.631Z,50.60
2017-04-06T10:23:39.463Z,49.00
2017-04-06T10:24:38.640Z,49.50
2017-04-06T10:25:37.844Z,50.10
2017-04-06T10:26:37.020Z,49.10
2017-04-06T10:27:36.240Z,48.90
2017-04-06T10:28:36.020Z,48.60
2017-04-06T10:29:35.192Z,48.90
2017-04-06T10:30:34.376Z,47.20
2017-04-06T10:31:33.618Z,47.50
2017-04-06T10:32:33.436Z,48.10
2017-04-06T10:33:32.547Z,49.10
2017-04-06T10:34:31.689Z,49.30
2017-04-06T10:35:30.787Z,49.20
2017-04-06T10:36:29.957Z,49.40
2017-04-06T10:37:29.125Z,48.50
2017-04-06T10:38:28.326Z,48.00
2017-04-06T10:39:27.439Z,48.60
2017-04-06T10:40:26.568Z,48.20
2017-04-06T10:41:25.712Z,47.90
2017-04-06T10:42:25.676Z,48.10
2017-04-06T10:43:24.735Z,48.60
2017-04-06T10:44:23.940Z,47.50
2017-04-06T10:45:23.119Z,46.00
2017-04-06T10:46:22.181Z,45.80
2017-04-06T10:47:21.322Z,46.30
2017-04-06T10:48:20.467Z,45.30
2017-04-06T10:49:19.929Z,46.20
2017-04-06T10:50:19.080Z,45.30
2017-04-06T10:51:18.983Z,43.90
2017-04-06T10:52:18.083Z,45.60
2017-04-06T10:53:17.260Z,42.50
2017-04-06T10:54:16.271Z,43.00
2017-04-06T10:55:15.408Z,42.80
2017-04-06T10:56:14.616Z,44.50
2017-04-06T10:57:13.814Z,45.20
2017-04-06T10:58:12.903Z,45.70
2017-04-06T10:59:12.071Z,45.90
2017-04-06T11:00:11.285Z,45.70
2017-04-06T11:01:11.320Z,43.80
2017-04-06T11:02:10.456Z,44.60
2017-04-06T11:03:10.085Z,44.80
2017-04-06T11:04:09.280Z,46.20
2017-04-06T11:05:08.486Z,46.30
2017-04-06T11:06:07.649Z,45.40
2017-04-06T11:07:06.843Z,45.60
2017-04-06T11:08:06.002Z,45.50
2017-04-06T11:09:05.712Z,43.90
2017-04-06T11:10:04.941Z,44.50
2017-04-06T11:11:04.713Z,45.80
2017-04-06T11:12:03.739Z,45.30
2017-04-06T11:13:03.640Z,45.30
2017-04-06T11:14:02.765Z,45.70
2017-04-06T11:15:01.805Z,44.80
2017-04-06T11:16:00.930Z,44.60
2017-04-06T11:17:00.402Z,43.60
2017-04-06T11:18:59.576Z,45.00
2017-04-06T11:19:58.727Z,44.20
2017-04-06T11:20:57.900Z,44.70
2017-04-06T11:21:57.104Z,45.00
2017-04-06T11:22:56.288Z,44.80
2017-04-06T11:23:55.399Z,44.60
2017-04-06T11:24:54.467Z,44.30
2017-04-06T11:25:53.641Z,43.80
2017-04-06T11:26:53.059Z,44.30
2017-04-06T11:27:52.192Z,44.10
2017-04-06T11:28:51.364Z,44.60
2017-04-06T11:29:50.438Z,45.00
2017-04-06T11:30:49.616Z,45.50
2017-04-06T11:31:48.787Z,44.70
2017-04-06T11:32:48.823Z,44.30
2017-04-06T11:33:47.983Z,44.50
2017-04-06T11:34:47.260Z,44.40
2017-04-06T11:35:46.453Z,43.40
2017-04-06T11:36:45.606Z,42.20
2017-04-06T11:37:45.451Z,42.70
2017-04-06T11:38:44.546Z,42.20
2017-04-06T11:39:43.582Z,42.20
2017-04-06T11:40:42.684Z,40.90
2017-04-06T11:41:41.820Z,40.80
2017-04-06T11:42:41.680Z,40.40
2017-04-06T11:43:40.780Z,41.00
2017-04-06T11:44:39.831Z,41.60
2017-04-06T11:45:38.964Z,42.50
2017-04-06T11:46:38.131Z,41.70
2017-04-06T11:47:37.235Z,41.30
2017-04-06T11:48:36.407Z,41.40
2017-04-06T11:49:35.567Z,40.90
2017-04-06T11:50:35.419Z,39.90
2017-04-06T11:51:34.520Z,40.20
2017-04-06T11:52:33.593Z,41.00
2017-04-06T11:53:32.779Z,40.60
2017-04-06T11:54:32.724Z,41.30
2017-04-06T11:55:31.827Z,41.00
2017-04-06T11:56:30.958Z,41.60
2017-04-06T11:57:30.756Z,43.40
2017-04-06T11:58:30.575Z,44.00
2017-04-06T11:59:29.684Z,42.80
2017-04-06T12:00:28.900Z,41.70
2017-04-06T12:01:28.783Z,41.30
2017-04-06T12:02:27.746Z,41.50
2017-04-06T12:03:26.960Z,42.40
2017-04-06T12:04:26.861Z,42.70
2017-04-06T12:05:26.705Z,42.30
2017-04-06T12:06:25.944Z,41.70
2017-04-06T12:07:25.800Z,42.30
2017-04-06T12:08:24.943Z,42.20
2017-04-06T12:09:24.056Z,42.10
2017-04-06T12:10:23.156Z,41.40
2017-04-06T12:11:22.313Z,42.30
2017-04-06T12:12:21.424Z,41.50
2017-04-06T12:13:20.616Z,42.10
2017-04-06T12:14:19.731Z,41.20
2017-04-06T12:15:18.847Z,42.30
2017-04-06T12:16:17.991Z,41.70
2017-04-06T12:17:17.145Z,42.50
2017-04-06T12:18:16.293Z,42.60
2017-04-06T12:19:15.399Z,43.00
2017-04-06T12:20:15.271Z,43.40
2017-04-06T12:21:14.415Z,42.60
2017-04-06T12:22:13.613Z,41.90
2017-04-06T12:23:12.676Z,42.40
2017-04-06T12:24:11.773Z,41.70
2017-04-06T12:25:11.705Z,40.60
2017-04-06T12:26:11.531Z,41.90
2017-04-06T12:27:10.689Z,41.30
2017-04-06T12:28:10.515Z,40.30
2017-04-06T12:29:10.054Z,41.30
2017-04-06T12:30:09.156Z,41.00
2017-04-06T12:31:09.000Z,40.10
2017-04-06T12:32:08.083Z,41.00
2017-04-06T12:33:07.232Z,41.00
2017-04-06T12:34:06.332Z,41.50
2017-04-06T12:35:05.554Z,41.00
2017-04-06T12:36:05.111Z,40.50
2017-04-06T12:37:04.247Z,40.00
2017-04-06T12:38:04.156Z,41.20
2017-04-06T12:39:04.268Z,42.00
2017-04-06T12:40:03.352Z,42.30
2017-04-06T12:41:02.408Z,42.40
2017-04-06T12:42:02.295Z,42.30
2017-04-06T12:43:02.172Z,43.00
2017-04-06T12:44:01.265Z,43.10
2017-04-06T12:45:00.356Z,43.00
2017-04-06T12:46:00.232Z,42.30
2017-04-06T12:46:59.365Z,42.70
2017-04-06T12:47:58.455Z,43.30
2017-04-06T12:48:57.613Z,43.00
2017-04-06T12:49:56.692Z,43.70
2017-04-06T12:50:55.772Z,41.70
2017-04-06T12:51:54.854Z,41.60
2017-04-06T12:52:54.011Z,41.60